sensor_id;sensor_type;location;lat;lon;timestamp;pressure;altitude;pressure_sealevel;temperature;humidity
75668;BME280;64266;48.798;44.756;2023-05-29T00:02:09;101296.72;;;19.53;73.39
75668;BME280;64266;48.798;44.756;2023-05-29T00:07:11;101279.19;;;19.51;73.36
75668;BME280;64266;48.798;44.756;2023-05-29T00:12:15;101270.50;;;19.38;73.39
75668;BME280;64266;48.798;44.756;2023-05-29T00:17:18;101287.25;;;19.40;73.36
75668;BME280;64266;48.798;44.756;2023-05-29T00:22:20;101297.41;;;19.38;73.65
75668;BME280;64266;48.798;44.756;2023-05-29T00:27:24;101298.72;;;19.31;73.68
75668;BME280;64266;48.798;44.756;2023-05-29T00:32:27;101300.63;;;19.35;74.14
75668;BME280;64266;48.798;44.756;2023-05-29T00:37:30;101301.44;;;19.36;73.69
75668;BME280;64266;48.798;44.756;2023-05-29T00:42:32;101293.34;;;19.31;74.02
75668;BME280;64266;48.798;44.756;2023-05-29T00:47:36;101298.97;;;19.29;73.59
75668;BME280;64266;48.798;44.756;2023-05-29T00:52:41;101295.50;;;19.34;73.48
75668;BME280;64266;48.798;44.756;2023-05-29T00:57:44;101293.06;;;19.32;73.67
75668;BME280;64266;48.798;44.756;2023-05-29T01:02:49;101289.03;;;19.25;73.61
75668;BME280;64266;48.798;44.756;2023-05-29T01:07:51;101289.03;;;19.30;73.34
75668;BME280;64266;48.798;44.756;2023-05-29T01:13:27;101309.50;;;19.36;73.42
75668;BME280;64266;48.798;44.756;2023-05-29T01:18:57;101312.19;;;19.31;73.60
75668;BME280;64266;48.798;44.756;2023-05-29T01:24:13;101321.06;;;19.31;73.41
75668;BME280;64266;48.798;44.756;2023-05-29T01:29:22;101318.63;;;19.30;73.00
75668;BME280;64266;48.798;44.756;2023-05-29T01:34:25;101320.47;;;19.19;72.76
75668;BME280;64266;48.798;44.756;2023-05-29T01:39:28;101322.56;;;19.12;72.79
75668;BME280;64266;48.798;44.756;2023-05-29T01:44:33;101341.38;;;19.12;72.97
75668;BME280;64266;48.798;44.756;2023-05-29T01:49:36;101336.75;;;19.08;73.02
75668;BME280;64266;48.798;44.756;2023-05-29T01:54:43;101348.38;;;19.13;72.78
75668;BME280;64266;48.798;44.756;2023-05-29T01:59:47;101346.22;;;19.10;72.40
75668;BME280;64266;48.798;44.756;2023-05-29T02:04:51;101357.00;;;19.20;72.20
75668;BME280;64266;48.798;44.756;2023-05-29T02:09:54;101359.47;;;19.27;72.18
75668;BME280;64266;48.798;44.756;2023-05-29T02:14:57;101327.41;;;19.15;71.58
75668;BME280;64266;48.798;44.756;2023-05-29T02:20:02;101361.41;;;19.36;71.71
75668;BME280;64266;48.798;44.756;2023-05-29T02:25:07;101358.78;;;19.41;71.92
75668;BME280;64266;48.798;44.756;2023-05-29T02:30:10;101352.00;;;19.39;71.13
75668;BME280;64266;48.798;44.756;2023-05-29T02:35:15;101363.13;;;19.47;71.48
75668;BME280;64266;48.798;44.756;2023-05-29T02:40:21;101354.56;;;19.56;71.30
75668;BME280;64266;48.798;44.756;2023-05-29T02:45:24;101373.19;;;19.67;70.37
75668;BME280;64266;48.798;44.756;2023-05-29T02:50:28;101379.13;;;19.74;70.71
75668;BME280;64266;48.798;44.756;2023-05-29T02:55:31;101354.91;;;19.74;70.14
75668;BME280;64266;48.798;44.756;2023-05-29T03:00:38;101366.81;;;19.88;69.89
75668;BME280;64266;48.798;44.756;2023-05-29T03:05:41;101387.88;;;20.07;69.68
75668;BME280;64266;48.798;44.756;2023-05-29T03:10:44;101391.66;;;20.16;69.52
75668;BME280;64266;48.798;44.756;2023-05-29T03:15:49;101403.84;;;20.28;68.52
75668;BME280;64266;48.798;44.756;2023-05-29T03:20:54;101384.63;;;20.10;68.12
75668;BME280;64266;48.798;44.756;2023-05-29T03:25:59;101441.03;;;20.31;67.80
75668;BME280;64266;48.798;44.756;2023-05-29T03:31:04;101465.03;;;20.33;67.97
75668;BME280;64266;48.798;44.756;2023-05-29T03:36:07;101421.56;;;20.24;68.13
75668;BME280;64266;48.798;44.756;2023-05-29T03:41:10;101427.88;;;20.45;68.31
75668;BME280;64266;48.798;44.756;2023-05-29T03:46:13;101418.69;;;20.46;68.37
75668;BME280;64266;48.798;44.756;2023-05-29T03:51:17;101416.00;;;20.41;70.30
75668;BME280;64266;48.798;44.756;2023-05-29T03:56:20;101422.47;;;20.35;71.09
75668;BME280;64266;48.798;44.756;2023-05-29T04:01:24;101392.75;;;20.20;73.20
75668;BME280;64266;48.798;44.756;2023-05-29T04:06:28;101401.94;;;20.24;73.87
75668;BME280;64266;48.798;44.756;2023-05-29T04:11:32;101399.25;;;20.24;73.26
75668;BME280;64266;48.798;44.756;2023-05-29T04:16:37;101406.00;;;20.31;72.92
75668;BME280;64266;48.798;44.756;2023-05-29T04:21:40;101414.91;;;20.27;73.27
75668;BME280;64266;48.798;44.756;2023-05-29T04:26:44;101411.94;;;20.28;72.94
75668;BME280;64266;48.798;44.756;2023-05-29T04:31:48;101416.78;;;20.31;73.20
75668;BME280;64266;48.798;44.756;2023-05-29T04:36:51;101426.53;;;20.47;73.29
75668;BME280;64266;48.798;44.756;2023-05-29T04:41:54;101411.72;;;20.60;72.93
75668;BME280;64266;48.798;44.756;2023-05-29T04:46:59;101425.22;;;20.75;73.26
75668;BME280;64266;48.798;44.756;2023-05-29T04:52:05;101398.25;;;20.90;72.72
75668;BME280;64266;48.798;44.756;2023-05-29T04:57:08;101375.59;;;21.01;72.82
75668;BME280;64266;48.798;44.756;2023-05-29T05:02:11;101390.88;;;21.67;70.66
75668;BME280;64266;48.798;44.756;2023-05-29T05:07:14;101404.75;;;22.97;67.22
75668;BME280;64266;48.798;44.756;2023-05-29T05:12:18;101406.53;;;23.35;65.62
75668;BME280;64266;48.798;44.756;2023-05-29T05:17:21;101394.38;;;23.33;64.26
75668;BME280;64266;48.798;44.756;2023-05-29T05:22:26;101415.31;;;23.51;63.52
75668;BME280;64266;48.798;44.756;2023-05-29T05:27:31;101431.25;;;24.79;62.30
75668;BME280;64266;48.798;44.756;2023-05-29T05:32:34;101426.66;;;24.61;60.23
75668;BME280;64266;48.798;44.756;2023-05-29T05:37:41;101402.50;;;24.04;60.61
75668;BME280;64266;48.798;44.756;2023-05-29T05:42:43;101391.41;;;23.82;61.63
75668;BME280;64266;48.798;44.756;2023-05-29T05:47:51;101334.31;;;23.31;61.83
75668;BME280;64266;48.798;44.756;2023-05-29T05:53:00;101384.34;;;23.62;61.37
75668;BME280;64266;48.798;44.756;2023-05-29T05:58:06;101391.50;;;24.38;59.62
75668;BME280;64266;48.798;44.756;2023-05-29T06:03:13;101367.75;;;24.80;57.66
75668;BME280;64266;48.798;44.756;2023-05-29T06:08:39;101385.31;;;25.61;56.57
75668;BME280;64266;48.798;44.756;2023-05-29T06:13:44;101390.34;;;26.45;52.93
75668;BME280;64266;48.798;44.756;2023-05-29T06:18:59;101387.63;;;27.51;50.04
75668;BME280;64266;48.798;44.756;2023-05-29T06:24:07;101387.00;;;28.70;46.25
75668;BME280;64266;48.798;44.756;2023-05-29T06:29:11;101371.06;;;30.03;44.20
75668;BME280;64266;48.798;44.756;2023-05-29T06:34:19;101377.03;;;31.24;41.09
75668;BME280;64266;48.798;44.756;2023-05-29T06:39:28;101330.34;;;31.97;39.15
75668;BME280;64266;48.798;44.756;2023-05-29T06:44:33;101356.13;;;32.60;38.50
75668;BME280;64266;48.798;44.756;2023-05-29T06:49:52;101351.63;;;32.67;36.58
75668;BME280;64266;48.798;44.756;2023-05-29T06:54:57;101357.31;;;32.47;37.45
75668;BME280;64266;48.798;44.756;2023-05-29T07:00:00;101363.22;;;31.57;39.33
75668;BME280;64266;48.798;44.756;2023-05-29T07:05:06;101350.97;;;31.18;39.27
75668;BME280;64266;48.798;44.756;2023-05-29T07:10:12;101349.59;;;31.00;39.19
75668;BME280;64266;48.798;44.756;2023-05-29T07:15:16;101333.47;;;30.53;41.75
75668;BME280;64266;48.798;44.756;2023-05-29T07:21:01;101323.69;;;30.11;41.44
75668;BME280;64266;48.798;44.756;2023-05-29T07:26:19;101349.75;;;30.83;40.57
75668;BME280;64266;48.798;44.756;2023-05-29T07:31:25;101317.16;;;31.14;39.84
75668;BME280;64266;48.798;44.756;2023-05-29T07:36:30;101332.50;;;31.27;39.24
75668;BME280;64266;48.798;44.756;2023-05-29T07:41:40;101298.78;;;31.02;39.27
75668;BME280;64266;48.798;44.756;2023-05-29T07:46:47;101323.41;;;30.90;39.61
75668;BME280;64266;48.798;44.756;2023-05-29T07:52:21;101308.50;;;30.34;41.20
75668;BME280;64266;48.798;44.756;2023-05-29T07:57:25;101312.88;;;30.80;40.70
75668;BME280;64266;48.798;44.756;2023-05-29T08:02:31;101308.34;;;30.84;40.56
75668;BME280;64266;48.798;44.756;2023-05-29T08:08:06;101286.03;;;30.29;41.44
75668;BME280;64266;48.798;44.756;2023-05-29T08:13:21;101297.53;;;30.22;42.38
75668;BME280;64266;48.798;44.756;2023-05-29T08:18:29;101300.88;;;30.07;42.54
75668;BME280;64266;48.798;44.756;2023-05-29T08:23:35;101291.84;;;29.65;42.96
75668;BME280;64266;48.798;44.756;2023-05-29T08:28:41;101300.41;;;29.34;43.65
75668;BME280;64266;48.798;44.756;2023-05-29T08:33:46;101300.28;;;29.14;43.87
75668;BME280;64266;48.798;44.756;2023-05-29T08:38:49;101265.13;;;29.12;44.22
75668;BME280;64266;48.798;44.756;2023-05-29T08:43:52;101262.59;;;29.07;42.76
75668;BME280;64266;48.798;44.756;2023-05-29T08:48:58;101273.19;;;29.09;44.06
75668;BME280;64266;48.798;44.756;2023-05-29T08:54:05;101256.28;;;29.15;42.42
75668;BME280;64266;48.798;44.756;2023-05-29T08:59:09;101262.06;;;29.14;42.97
75668;BME280;64266;48.798;44.756;2023-05-29T09:04:15;101256.78;;;29.09;43.20
75668;BME280;64266;48.798;44.756;2023-05-29T09:09:19;101241.66;;;29.11;43.61
75668;BME280;64266;48.798;44.756;2023-05-29T09:14:39;101236.06;;;29.08;43.33
75668;BME280;64266;48.798;44.756;2023-05-29T09:19:44;101238.28;;;29.14;42.92
75668;BME280;64266;48.798;44.756;2023-05-29T09:24:48;101230.06;;;29.14;42.73
75668;BME280;64266;48.798;44.756;2023-05-29T09:29:52;101226.13;;;29.32;43.38
75668;BME280;64266;48.798;44.756;2023-05-29T09:35:00;101229.38;;;29.26;43.12
75668;BME280;64266;48.798;44.756;2023-05-29T09:40:10;101222.88;;;29.10;43.51
75668;BME280;64266;48.798;44.756;2023-05-29T09:45:17;101227.41;;;29.05;43.45
75668;BME280;64266;48.798;44.756;2023-05-29T09:50:25;101201.78;;;28.89;43.61
75668;BME280;64266;48.798;44.756;2023-05-29T09:55:30;101233.88;;;28.92;43.51
75668;BME280;64266;48.798;44.756;2023-05-29T10:00:35;101210.66;;;28.78;43.82
75668;BME280;64266;48.798;44.756;2023-05-29T10:05:40;101211.97;;;29.10;43.06
75668;BME280;64266;48.798;44.756;2023-05-29T10:10:52;101218.53;;;29.38;43.39
75668;BME280;64266;48.798;44.756;2023-05-29T10:15:58;101220.63;;;29.41;42.77
75668;BME280;64266;48.798;44.756;2023-05-29T10:21:02;101220.81;;;29.36;43.03
75668;BME280;64266;48.798;44.756;2023-05-29T10:26:29;101224.66;;;29.35;42.48
75668;BME280;64266;48.798;44.756;2023-05-29T10:31:44;101212.72;;;29.19;42.68
75668;BME280;64266;48.798;44.756;2023-05-29T10:36:55;101195.22;;;29.11;42.73
75668;BME280;64266;48.798;44.756;2023-05-29T10:41:59;101217.69;;;29.25;42.39
75668;BME280;64266;48.798;44.756;2023-05-29T10:47:04;101214.16;;;29.25;42.64
75668;BME280;64266;48.798;44.756;2023-05-29T10:52:10;101213.50;;;29.19;42.91
75668;BME280;64266;48.798;44.756;2023-05-29T10:57:13;101204.81;;;29.17;42.76
75668;BME280;64266;48.798;44.756;2023-05-29T11:02:18;101176.88;;;28.91;42.56
75668;BME280;64266;48.798;44.756;2023-05-29T11:07:51;101182.59;;;28.98;43.17
75668;BME280;64266;48.798;44.756;2023-05-29T11:12:57;101197.72;;;28.95;42.94
75668;BME280;64266;48.798;44.756;2023-05-29T11:18:06;101174.97;;;28.83;43.30
75668;BME280;64266;48.798;44.756;2023-05-29T11:23:15;101192.22;;;29.04;43.28
75668;BME280;64266;48.798;44.756;2023-05-29T11:28:22;101145.91;;;28.87;43.23
75668;BME280;64266;48.798;44.756;2023-05-29T11:33:27;101159.69;;;28.90;43.82
75668;BME280;64266;48.798;44.756;2023-05-29T11:38:31;101176.78;;;29.08;42.91
75668;BME280;64266;48.798;44.756;2023-05-29T11:43:33;101168.63;;;28.99;43.22
75668;BME280;64266;48.798;44.756;2023-05-29T11:48:45;101169.66;;;28.86;43.41
75668;BME280;64266;48.798;44.756;2023-05-29T11:53:50;101155.03;;;28.91;42.85
75668;BME280;64266;48.798;44.756;2023-05-29T11:58:58;101134.78;;;28.92;43.36
75668;BME280;64266;48.798;44.756;2023-05-29T12:04:13;101131.88;;;28.97;42.80
75668;BME280;64266;48.798;44.756;2023-05-29T12:09:29;101137.31;;;28.97;43.33
75668;BME280;64266;48.798;44.756;2023-05-29T12:14:54;101112.09;;;28.71;43.49
75668;BME280;64266;48.798;44.756;2023-05-29T12:19:57;101129.13;;;28.76;42.85
75668;BME280;64266;48.798;44.756;2023-05-29T12:25:23;101117.09;;;28.69;43.13
75668;BME280;64266;48.798;44.756;2023-05-29T12:30:28;101108.59;;;28.62;42.55
75668;BME280;64266;48.798;44.756;2023-05-29T12:35:35;101105.09;;;28.52;43.52
75668;BME280;64266;48.798;44.756;2023-05-29T12:40:38;101096.66;;;28.45;43.15
75668;BME280;64266;48.798;44.756;2023-05-29T12:45:41;101111.59;;;28.39;43.67
75668;BME280;64266;48.798;44.756;2023-05-29T12:50:48;101074.03;;;28.07;43.61
75668;BME280;64266;48.798;44.756;2023-05-29T12:55:53;101104.03;;;28.07;43.89
75668;BME280;64266;48.798;44.756;2023-05-29T13:00:59;101107.56;;;27.99;44.99
75668;BME280;64266;48.798;44.756;2023-05-29T13:06:02;101105.47;;;27.96;44.70
75668;BME280;64266;48.798;44.756;2023-05-29T13:11:07;101115.75;;;27.82;45.03
75668;BME280;64266;48.798;44.756;2023-05-29T13:16:12;101091.88;;;27.79;45.23
75668;BME280;64266;48.798;44.756;2023-05-29T13:21:15;101096.03;;;27.85;44.73
75668;BME280;64266;48.798;44.756;2023-05-29T13:26:19;101094.44;;;27.75;44.73
75668;BME280;64266;48.798;44.756;2023-05-29T13:31:26;101085.34;;;27.71;44.89
75668;BME280;64266;48.798;44.756;2023-05-29T13:36:30;101038.25;;;27.45;44.54
75668;BME280;64266;48.798;44.756;2023-05-29T13:41:45;101077.78;;;27.60;44.76
75668;BME280;64266;48.798;44.756;2023-05-29T13:46:48;101071.25;;;27.52;45.07
75668;BME280;64266;48.798;44.756;2023-05-29T13:51:52;101058.75;;;27.34;45.15
75668;BME280;64266;48.798;44.756;2023-05-29T13:56:56;101051.03;;;27.36;44.96
75668;BME280;64266;48.798;44.756;2023-05-29T14:02:01;101061.13;;;27.35;44.88
75668;BME280;64266;48.798;44.756;2023-05-29T14:07:05;101057.94;;;27.33;44.97
75668;BME280;64266;48.798;44.756;2023-05-29T14:12:12;101047.53;;;27.18;45.09
75668;BME280;64266;48.798;44.756;2023-05-29T14:17:15;101040.16;;;27.10;45.53
75668;BME280;64266;48.798;44.756;2023-05-29T14:22:18;101050.91;;;27.15;45.64
75668;BME280;64266;48.798;44.756;2023-05-29T14:27:20;101060.81;;;27.11;45.81
75668;BME280;64266;48.798;44.756;2023-05-29T14:32:25;101061.00;;;26.98;45.96
75668;BME280;64266;48.798;44.756;2023-05-29T14:37:29;101052.03;;;26.88;46.21
75668;BME280;64266;48.798;44.756;2023-05-29T14:42:32;101042.84;;;26.76;46.11
75668;BME280;64266;48.798;44.756;2023-05-29T14:47:35;101046.53;;;26.71;46.69
75668;BME280;64266;48.798;44.756;2023-05-29T14:52:39;101045.41;;;26.64;47.23
75668;BME280;64266;48.798;44.756;2023-05-29T14:57:42;101024.09;;;26.49;47.10
75668;BME280;64266;48.798;44.756;2023-05-29T15:02:46;101023.59;;;26.47;47.34
75668;BME280;64266;48.798;44.756;2023-05-29T15:07:49;101017.31;;;26.29;47.89
75668;BME280;64266;48.798;44.756;2023-05-29T15:12:53;101022.09;;;26.23;47.99
75668;BME280;64266;48.798;44.756;2023-05-29T15:17:59;101036.75;;;26.14;48.21
75668;BME280;64266;48.798;44.756;2023-05-29T15:23:04;101020.72;;;26.04;48.43
75668;BME280;64266;48.798;44.756;2023-05-29T15:28:07;100992.78;;;25.81;48.92
75668;BME280;64266;48.798;44.756;2023-05-29T15:33:10;101018.84;;;25.82;49.07
75668;BME280;64266;48.798;44.756;2023-05-29T15:38:13;101018.63;;;25.70;49.29
75668;BME280;64266;48.798;44.756;2023-05-29T15:43:17;101012.69;;;25.59;49.54
75668;BME280;64266;48.798;44.756;2023-05-29T15:48:20;100999.09;;;25.37;50.00
75668;BME280;64266;48.798;44.756;2023-05-29T15:53:23;101010.63;;;25.43;50.10
75668;BME280;64266;48.798;44.756;2023-05-29T15:58:26;101000.56;;;25.21;50.07
75668;BME280;64266;48.798;44.756;2023-05-29T16:03:30;101009.03;;;25.19;49.89
75668;BME280;64266;48.798;44.756;2023-05-29T16:08:33;100990.88;;;25.06;50.77
75668;BME280;64266;48.798;44.756;2023-05-29T16:13:35;100997.41;;;25.05;50.64
75668;BME280;64266;48.798;44.756;2023-05-29T16:18:38;101012.69;;;25.01;50.75
75668;BME280;64266;48.798;44.756;2023-05-29T16:23:40;100991.53;;;24.90;51.14
75668;BME280;64266;48.798;44.756;2023-05-29T16:28:43;100963.31;;;24.77;50.24
75668;BME280;64266;48.798;44.756;2023-05-29T16:33:45;100956.91;;;24.73;51.09
75668;BME280;64266;48.798;44.756;2023-05-29T16:38:49;100973.06;;;24.78;50.77
75668;BME280;64266;48.798;44.756;2023-05-29T16:43:52;100953.13;;;24.60;50.69
75668;BME280;64266;48.798;44.756;2023-05-29T16:48:55;100980.94;;;24.66;51.42
75668;BME280;64266;48.798;44.756;2023-05-29T16:53:58;100966.59;;;24.52;51.58
75668;BME280;64266;48.798;44.756;2023-05-29T16:59:00;100965.31;;;24.49;52.10
75668;BME280;64266;48.798;44.756;2023-05-29T17:04:03;100988.53;;;24.42;53.01
75668;BME280;64266;48.798;44.756;2023-05-29T17:09:09;100968.75;;;24.27;53.58
75668;BME280;64266;48.798;44.756;2023-05-29T17:14:11;100982.72;;;24.21;54.06
75668;BME280;64266;48.798;44.756;2023-05-29T17:19:15;100988.72;;;24.18;54.04
75668;BME280;64266;48.798;44.756;2023-05-29T17:24:18;100985.84;;;24.14;54.35
75668;BME280;64266;48.798;44.756;2023-05-29T17:29:20;100966.16;;;23.95;54.58
75668;BME280;64266;48.798;44.756;2023-05-29T17:34:23;100969.47;;;23.92;54.76
75668;BME280;64266;48.798;44.756;2023-05-29T17:39:25;100972.75;;;23.89;55.07
75668;BME280;64266;48.798;44.756;2023-05-29T17:44:28;100973.38;;;23.86;55.39
75668;BME280;64266;48.798;44.756;2023-05-29T17:49:31;100943.94;;;23.66;55.67
75668;BME280;64266;48.798;44.756;2023-05-29T17:54:34;100974.25;;;23.82;55.20
75668;BME280;64266;48.798;44.756;2023-05-29T17:59:37;100962.31;;;23.69;55.20
75668;BME280;64266;48.798;44.756;2023-05-29T18:04:40;100955.47;;;23.58;55.67
75668;BME280;64266;48.798;44.756;2023-05-29T18:09:46;100945.75;;;23.57;56.05
75668;BME280;64266;48.798;44.756;2023-05-29T18:14:49;100936.63;;;23.53;55.91
75668;BME280;64266;48.798;44.756;2023-05-29T18:19:52;100945.47;;;23.58;55.91
75668;BME280;64266;48.798;44.756;2023-05-29T18:24:55;100941.63;;;23.46;56.15
75668;BME280;64266;48.798;44.756;2023-05-29T18:29:58;100946.38;;;23.35;56.39
75668;BME280;64266;48.798;44.756;2023-05-29T18:35:03;100951.19;;;23.38;56.34
75668;BME280;64266;48.798;44.756;2023-05-29T18:40:06;100927.06;;;23.09;56.61
75668;BME280;64266;48.798;44.756;2023-05-29T18:45:09;100939.03;;;23.22;56.71
75668;BME280;64266;48.798;44.756;2023-05-29T18:50:13;100951.34;;;23.14;56.87
75668;BME280;64266;48.798;44.756;2023-05-29T18:55:17;100925.22;;;22.91;57.34
75668;BME280;64266;48.798;44.756;2023-05-29T19:00:20;100939.75;;;22.95;57.64
75668;BME280;64266;48.798;44.756;2023-05-29T19:05:23;100945.81;;;22.87;57.89
75668;BME280;64266;48.798;44.756;2023-05-29T19:10:27;100947.38;;;22.75;58.02
75668;BME280;64266;48.798;44.756;2023-05-29T19:15:29;100929.66;;;22.63;58.37
75668;BME280;64266;48.798;44.756;2023-05-29T19:20:32;100919.28;;;22.52;58.78
75668;BME280;64266;48.798;44.756;2023-05-29T19:25:34;100937.69;;;22.50;58.78
75668;BME280;64266;48.798;44.756;2023-05-29T19:30:37;100928.19;;;22.52;59.11
75668;BME280;64266;48.798;44.756;2023-05-29T19:35:40;100911.97;;;22.52;59.14
75668;BME280;64266;48.798;44.756;2023-05-29T19:40:43;100887.44;;;22.49;59.39
75668;BME280;64266;48.798;44.756;2023-05-29T19:45:47;100906.94;;;22.46;59.44
75668;BME280;64266;48.798;44.756;2023-05-29T19:51:07;100896.13;;;22.46;59.37
75668;BME280;64266;48.798;44.756;2023-05-29T19:56:09;100875.03;;;22.48;59.16
75668;BME280;64266;48.798;44.756;2023-05-29T20:01:13;100886.94;;;22.47;58.72
75668;BME280;64266;48.798;44.756;2023-05-29T20:06:17;100832.25;;;22.18;58.46
75668;BME280;64266;48.798;44.756;2023-05-29T20:11:20;100877.38;;;22.54;58.64
75668;BME280;64266;48.798;44.756;2023-05-29T20:16:23;100860.03;;;22.55;58.24
75668;BME280;64266;48.798;44.756;2023-05-29T20:21:27;100876.78;;;22.76;56.20
75668;BME280;64266;48.798;44.756;2023-05-29T20:26:31;100915.94;;;22.79;55.74
75668;BME280;64266;48.798;44.756;2023-05-29T20:31:34;101002.97;;;22.99;55.63
75668;BME280;64266;48.798;44.756;2023-05-29T20:36:37;100999.19;;;23.00;57.87
75668;BME280;64266;48.798;44.756;2023-05-29T20:41:40;100929.25;;;22.75;60.25
75668;BME280;64266;48.798;44.756;2023-05-29T20:46:42;100893.50;;;22.78;61.27
75668;BME280;64266;48.798;44.756;2023-05-29T20:51:45;100918.41;;;22.56;60.53
75668;BME280;64266;48.798;44.756;2023-05-29T20:56:48;100862.81;;;22.32;61.02
75668;BME280;64266;48.798;44.756;2023-05-29T21:01:51;100868.22;;;22.32;60.95
75668;BME280;64266;48.798;44.756;2023-05-29T21:06:56;100859.41;;;22.26;61.45
75668;BME280;64266;48.798;44.756;2023-05-29T21:11:58;100817.22;;;22.11;62.14
75668;BME280;64266;48.798;44.756;2023-05-29T21:17:01;100803.25;;;22.04;62.40
75668;BME280;64266;48.798;44.756;2023-05-29T21:22:03;100845.53;;;22.14;61.31
75668;BME280;64266;48.798;44.756;2023-05-29T21:27:06;100856.03;;;22.15;59.50
75668;BME280;64266;48.798;44.756;2023-05-29T21:32:09;100865.97;;;22.20;59.55
75668;BME280;64266;48.798;44.756;2023-05-29T21:37:13;100861.63;;;22.00;59.97
75668;BME280;64266;48.798;44.756;2023-05-29T21:42:16;100868.31;;;22.08;59.70
75668;BME280;64266;48.798;44.756;2023-05-29T21:47:19;100875.53;;;22.12;59.56
75668;BME280;64266;48.798;44.756;2023-05-29T21:52:22;100862.69;;;22.04;59.17
75668;BME280;64266;48.798;44.756;2023-05-29T21:57:25;100862.53;;;22.14;58.85
75668;BME280;64266;48.798;44.756;2023-05-29T22:02:28;100842.69;;;22.05;58.76
75668;BME280;64266;48.798;44.756;2023-05-29T22:07:32;100856.69;;;22.07;58.04
75668;BME280;64266;48.798;44.756;2023-05-29T22:12:35;100832.25;;;21.99;58.03
75668;BME280;64266;48.798;44.756;2023-05-29T22:17:39;100860.25;;;22.03;57.51
75668;BME280;64266;48.798;44.756;2023-05-29T22:22:45;100844.47;;;21.91;57.85
75668;BME280;64266;48.798;44.756;2023-05-29T22:27:47;100849.63;;;21.88;57.95
75668;BME280;64266;48.798;44.756;2023-05-29T22:32:50;100841.09;;;21.81;58.06
75668;BME280;64266;48.798;44.756;2023-05-29T22:37:54;100850.63;;;21.73;57.56
75668;BME280;64266;48.798;44.756;2023-05-29T22:42:58;100846.69;;;21.66;58.11
75668;BME280;64266;48.798;44.756;2023-05-29T22:48:02;100837.88;;;21.55;57.99
75668;BME280;64266;48.798;44.756;2023-05-29T22:53:05;100842.59;;;21.44;58.85
75668;BME280;64266;48.798;44.756;2023-05-29T22:58:09;100814.28;;;21.18;58.48
75668;BME280;64266;48.798;44.756;2023-05-29T23:03:12;100826.47;;;21.16;58.55
75668;BME280;64266;48.798;44.756;2023-05-29T23:08:16;100842.09;;;21.14;58.65
75668;BME280;64266;48.798;44.756;2023-05-29T23:13:19;100829.28;;;21.00;58.62
75668;BME280;64266;48.798;44.756;2023-05-29T23:18:22;100826.66;;;20.90;58.84
75668;BME280;64266;48.798;44.756;2023-05-29T23:23:25;100820.47;;;20.90;59.19
75668;BME280;64266;48.798;44.756;2023-05-29T23:28:28;100789.69;;;20.67;58.92
75668;BME280;64266;48.798;44.756;2023-05-29T23:33:32;100830.25;;;20.81;58.86
75668;BME280;64266;48.798;44.756;2023-05-29T23:38:36;100821.41;;;20.75;58.92
75668;BME280;64266;48.798;44.756;2023-05-29T23:43:38;100822.03;;;20.67;59.22
75668;BME280;64266;48.798;44.756;2023-05-29T23:48:40;100833.34;;;20.64;59.68
75668;BME280;64266;48.798;44.756;2023-05-29T23:53:45;100831.75;;;20.63;59.22
75668;BME280;64266;48.798;44.756;2023-05-29T23:58:48;100803.56;;;20.50;59.41
